sensor_id;sensor_type;location;lat;lon;timestamp;temperature;humidity
12125;DHT22;6126;57.908;16.490;2023-10-08T00:02:25;5.80;74.30
12125;DHT22;6126;57.908;16.490;2023-10-08T00:04:53;5.70;74.30
12125;DHT22;6126;57.908;16.490;2023-10-08T00:07:23;5.60;74.10
12125;DHT22;6126;57.908;16.490;2023-10-08T00:09:53;5.40;73.90
12125;DHT22;6126;57.908;16.490;2023-10-08T00:12:19;5.40;73.90
12125;DHT22;6126;57.908;16.490;2023-10-08T00:14:47;5.50;74.10
12125;DHT22;6126;57.908;16.490;2023-10-08T00:17:18;5.40;74.10
12125;DHT22;6126;57.908;16.490;2023-10-08T00:19:44;5.60;74.20
12125;DHT22;6126;57.908;16.490;2023-10-08T00:22:11;5.50;74.10
12125;DHT22;6126;57.908;16.490;2023-10-08T00:24:39;5.20;73.90
12125;DHT22;6126;57.908;16.490;2023-10-08T00:27:08;5.30;74.00
12125;DHT22;6126;57.908;16.490;2023-10-08T00:29:34;5.30;74.10
12125;DHT22;6126;57.908;16.490;2023-10-08T00:32:04;5.40;74.10
12125;DHT22;6126;57.908;16.490;2023-10-08T00:34:40;5.20;73.90
12125;DHT22;6126;57.908;16.490;2023-10-08T00:37:08;5.30;74.00
12125;DHT22;6126;57.908;16.490;2023-10-08T00:39:40;5.60;74.30
12125;DHT22;6126;57.908;16.490;2023-10-08T00:42:07;5.50;74.30
12125;DHT22;6126;57.908;16.490;2023-10-08T00:44:35;5.30;74.10
12125;DHT22;6126;57.908;16.490;2023-10-08T00:47:22;5.40;74.20
12125;DHT22;6126;57.908;16.490;2023-10-08T00:49:52;5.50;74.30
12125;DHT22;6126;57.908;16.490;2023-10-08T00:52:31;5.20;74.00
12125;DHT22;6126;57.908;16.490;2023-10-08T00:55:06;5.40;74.30
12125;DHT22;6126;57.908;16.490;2023-10-08T00:57:57;5.30;74.10
12125;DHT22;6126;57.908;16.490;2023-10-08T01:00:27;5.10;74.00
12125;DHT22;6126;57.908;16.490;2023-10-08T01:03:05;5.40;74.20
12125;DHT22;6126;57.908;16.490;2023-10-08T01:05:41;5.40;74.20
12125;DHT22;6126;57.908;16.490;2023-10-08T01:08:14;5.20;74.20
12125;DHT22;6126;57.908;16.490;2023-10-08T01:10:58;5.20;74.00
12125;DHT22;6126;57.908;16.490;2023-10-08T01:13:26;5.20;74.00
12125;DHT22;6126;57.908;16.490;2023-10-08T01:16:01;5.40;74.30
12125;DHT22;6126;57.908;16.490;2023-10-08T01:18:27;5.30;74.20
12125;DHT22;6126;57.908;16.490;2023-10-08T01:20:58;5.30;74.30
12125;DHT22;6126;57.908;16.490;2023-10-08T01:23:30;5.20;74.10
12125;DHT22;6126;57.908;16.490;2023-10-08T01:25:57;5.40;75.00
12125;DHT22;6126;57.908;16.490;2023-10-08T01:28:35;5.30;74.20
12125;DHT22;6126;57.908;16.490;2023-10-08T01:31:01;5.20;74.10
12125;DHT22;6126;57.908;16.490;2023-10-08T01:33:30;5.10;74.10
12125;DHT22;6126;57.908;16.490;2023-10-08T01:36:04;5.10;74.10
12125;DHT22;6126;57.908;16.490;2023-10-08T01:38:31;5.20;74.40
12125;DHT22;6126;57.908;16.490;2023-10-08T01:41:00;5.20;74.50
12125;DHT22;6126;57.908;16.490;2023-10-08T01:43:44;5.30;74.60
12125;DHT22;6126;57.908;16.490;2023-10-08T01:46:11;5.00;74.30
12125;DHT22;6126;57.908;16.490;2023-10-08T01:48:38;5.10;74.50
12125;DHT22;6126;57.908;16.490;2023-10-08T01:51:05;5.20;74.50
12125;DHT22;6126;57.908;16.490;2023-10-08T01:53:40;5.10;74.40
12125;DHT22;6126;57.908;16.490;2023-10-08T01:56:06;5.20;74.50
12125;DHT22;6126;57.908;16.490;2023-10-08T01:58:32;5.00;74.30
12125;DHT22;6126;57.908;16.490;2023-10-08T02:01:01;5.20;74.50
12125;DHT22;6126;57.908;16.490;2023-10-08T02:03:31;5.00;74.40
12125;DHT22;6126;57.908;16.490;2023-10-08T02:05:57;5.10;74.50
12125;DHT22;6126;57.908;16.490;2023-10-08T02:08:25;5.00;74.40
12125;DHT22;6126;57.908;16.490;2023-10-08T02:10:52;5.10;74.60
12125;DHT22;6126;57.908;16.490;2023-10-08T02:13:18;5.10;74.70
12125;DHT22;6126;57.908;16.490;2023-10-08T02:15:45;5.10;74.70
12125;DHT22;6126;57.908;16.490;2023-10-08T02:18:15;5.00;74.70
12125;DHT22;6126;57.908;16.490;2023-10-08T02:20:41;4.90;74.50
12125;DHT22;6126;57.908;16.490;2023-10-08T02:23:08;4.90;74.60
12125;DHT22;6126;57.908;16.490;2023-10-08T02:25:38;5.00;74.80
12125;DHT22;6126;57.908;16.490;2023-10-08T02:28:09;4.90;74.60
12125;DHT22;6126;57.908;16.490;2023-10-08T02:30:38;4.90;74.60
12125;DHT22;6126;57.908;16.490;2023-10-08T02:33:07;4.90;74.70
12125;DHT22;6126;57.908;16.490;2023-10-08T02:35:43;5.00;74.80
12125;DHT22;6126;57.908;16.490;2023-10-08T02:38:15;5.10;75.00
12125;DHT22;6126;57.908;16.490;2023-10-08T02:40:43;4.90;74.80
12125;DHT22;6126;57.908;16.490;2023-10-08T02:43:12;5.00;74.90
12125;DHT22;6126;57.908;16.490;2023-10-08T02:45:40;4.90;74.80
12125;DHT22;6126;57.908;16.490;2023-10-08T02:48:08;4.90;74.90
12125;DHT22;6126;57.908;16.490;2023-10-08T02:50:39;5.20;75.20
12125;DHT22;6126;57.908;16.490;2023-10-08T02:53:06;5.00;75.10
12125;DHT22;6126;57.908;16.490;2023-10-08T02:55:46;4.90;75.00
12125;DHT22;6126;57.908;16.490;2023-10-08T02:58:13;4.80;75.00
12125;DHT22;6126;57.908;16.490;2023-10-08T03:00:48;4.90;75.20
12125;DHT22;6126;57.908;16.490;2023-10-08T03:03:18;4.90;75.20
12125;DHT22;6126;57.908;16.490;2023-10-08T03:05:46;4.90;75.30
12125;DHT22;6126;57.908;16.490;2023-10-08T03:08:17;4.90;75.40
12125;DHT22;6126;57.908;16.490;2023-10-08T03:10:48;4.70;75.10
12125;DHT22;6126;57.908;16.490;2023-10-08T03:13:21;4.60;75.00
12125;DHT22;6126;57.908;16.490;2023-10-08T03:15:48;4.70;75.10
12125;DHT22;6126;57.908;16.490;2023-10-08T03:18:26;4.60;75.10
12125;DHT22;6126;57.908;16.490;2023-10-08T03:21:02;4.70;75.30
12125;DHT22;6126;57.908;16.490;2023-10-08T03:23:30;4.70;75.30
12125;DHT22;6126;57.908;16.490;2023-10-08T03:26:01;4.60;75.30
12125;DHT22;6126;57.908;16.490;2023-10-08T03:28:42;4.90;75.60
12125;DHT22;6126;57.908;16.490;2023-10-08T03:31:09;4.90;75.60
12125;DHT22;6126;57.908;16.490;2023-10-08T03:33:43;4.90;75.60
12125;DHT22;6126;57.908;16.490;2023-10-08T03:36:14;4.60;75.40
12125;DHT22;6126;57.908;16.490;2023-10-08T03:38:47;4.90;75.70
12125;DHT22;6126;57.908;16.490;2023-10-08T03:41:26;4.70;75.40
12125;DHT22;6126;57.908;16.490;2023-10-08T03:44:06;4.60;75.30
12125;DHT22;6126;57.908;16.490;2023-10-08T03:46:38;4.70;75.50
12125;DHT22;6126;57.908;16.490;2023-10-08T03:49:07;4.70;75.50
12125;DHT22;6126;57.908;16.490;2023-10-08T03:51:49;4.60;75.40
12125;DHT22;6126;57.908;16.490;2023-10-08T03:54:21;4.70;75.60
12125;DHT22;6126;57.908;16.490;2023-10-08T03:56:55;4.90;75.80
12125;DHT22;6126;57.908;16.490;2023-10-08T03:59:22;4.80;75.70
12125;DHT22;6126;57.908;16.490;2023-10-08T04:01:57;4.60;75.60
12125;DHT22;6126;57.908;16.490;2023-10-08T04:04:47;4.70;75.70
12125;DHT22;6126;57.908;16.490;2023-10-08T04:07:23;5.00;76.00
12125;DHT22;6126;57.908;16.490;2023-10-08T04:09:59;4.80;75.70
12125;DHT22;6126;57.908;16.490;2023-10-08T04:12:35;4.70;75.70
12125;DHT22;6126;57.908;16.490;2023-10-08T04:15:13;4.70;75.70
12125;DHT22;6126;57.908;16.490;2023-10-08T04:17:42;4.70;75.70
12125;DHT22;6126;57.908;16.490;2023-10-08T04:20:12;4.60;75.70
12125;DHT22;6126;57.908;16.490;2023-10-08T04:22:58;4.90;76.00
12125;DHT22;6126;57.908;16.490;2023-10-08T04:25:28;4.80;75.90
12125;DHT22;6126;57.908;16.490;2023-10-08T04:28:00;4.80;75.90
12125;DHT22;6126;57.908;16.490;2023-10-08T04:30:26;4.80;76.00
12125;DHT22;6126;57.908;16.490;2023-10-08T04:35:35;4.50;75.70
12125;DHT22;6126;57.908;16.490;2023-10-08T04:38:05;4.70;75.90
12125;DHT22;6126;57.908;16.490;2023-10-08T04:40:34;4.70;75.90
12125;DHT22;6126;57.908;16.490;2023-10-08T04:43:12;4.70;75.90
12125;DHT22;6126;57.908;16.490;2023-10-08T04:45:37;4.50;76.40
12125;DHT22;6126;57.908;16.490;2023-10-08T04:48:04;4.50;75.60
12125;DHT22;6126;57.908;16.490;2023-10-08T04:50:36;4.70;75.80
12125;DHT22;6126;57.908;16.490;2023-10-08T04:53:03;4.80;76.00
12125;DHT22;6126;57.908;16.490;2023-10-08T04:55:36;4.60;75.80
12125;DHT22;6126;57.908;16.490;2023-10-08T04:58:08;4.80;76.00
12125;DHT22;6126;57.908;16.490;2023-10-08T05:00:45;4.50;75.70
12125;DHT22;6126;57.908;16.490;2023-10-08T05:03:25;4.70;75.90
12125;DHT22;6126;57.908;16.490;2023-10-08T05:05:57;4.60;75.90
12125;DHT22;6126;57.908;16.490;2023-10-08T05:08:32;4.70;75.90
12125;DHT22;6126;57.908;16.490;2023-10-08T05:11:10;4.50;75.80
12125;DHT22;6126;57.908;16.490;2023-10-08T05:14:02;4.50;75.80
12125;DHT22;6126;57.908;16.490;2023-10-08T05:16:32;4.60;75.90
12125;DHT22;6126;57.908;16.490;2023-10-08T05:19:09;4.80;76.20
12125;DHT22;6126;57.908;16.490;2023-10-08T05:21:55;4.70;75.90
12125;DHT22;6126;57.908;16.490;2023-10-08T05:24:39;4.60;76.00
12125;DHT22;6126;57.908;16.490;2023-10-08T05:27:07;4.50;76.00
12125;DHT22;6126;57.908;16.490;2023-10-08T05:29:55;4.50;75.90
12125;DHT22;6126;57.908;16.490;2023-10-08T05:32:57;4.40;75.90
12125;DHT22;6126;57.908;16.490;2023-10-08T05:35:50;4.60;76.10
12125;DHT22;6126;57.908;16.490;2023-10-08T05:38:28;4.70;76.20
12125;DHT22;6126;57.908;16.490;2023-10-08T05:41:00;4.50;76.00
12125;DHT22;6126;57.908;16.490;2023-10-08T05:43:36;4.40;76.00
12125;DHT22;6126;57.908;16.490;2023-10-08T05:46:20;4.70;76.30
12125;DHT22;6126;57.908;16.490;2023-10-08T05:48:50;4.50;76.00
12125;DHT22;6126;57.908;16.490;2023-10-08T05:51:29;4.60;76.10
12125;DHT22;6126;57.908;16.490;2023-10-08T05:54:17;4.50;75.90
12125;DHT22;6126;57.908;16.490;2023-10-08T05:57:08;4.50;76.00
12125;DHT22;6126;57.908;16.490;2023-10-08T05:59:39;4.60;76.00
12125;DHT22;6126;57.908;16.490;2023-10-08T06:02:24;4.50;75.90
12125;DHT22;6126;57.908;16.490;2023-10-08T06:05:02;4.50;75.80
12125;DHT22;6126;57.908;16.490;2023-10-08T06:07:42;4.80;76.20
12125;DHT22;6126;57.908;16.490;2023-10-08T06:18:30;4.70;75.90
12125;DHT22;6126;57.908;16.490;2023-10-08T06:21:02;4.90;76.10
12125;DHT22;6126;57.908;16.490;2023-10-08T06:23:39;4.90;76.10
12125;DHT22;6126;57.908;16.490;2023-10-08T06:26:07;4.80;75.90
12125;DHT22;6126;57.908;16.490;2023-10-08T06:28:37;5.10;76.20
12125;DHT22;6126;57.908;16.490;2023-10-08T06:31:05;5.00;76.00
12125;DHT22;6126;57.908;16.490;2023-10-08T06:33:51;5.10;76.00
12125;DHT22;6126;57.908;16.490;2023-10-08T06:36:18;5.00;75.80
12125;DHT22;6126;57.908;16.490;2023-10-08T06:38:49;5.10;75.90
12125;DHT22;6126;57.908;16.490;2023-10-08T06:41:16;5.20;76.00
12125;DHT22;6126;57.908;16.490;2023-10-08T06:43:42;5.10;75.80
12125;DHT22;6126;57.908;16.490;2023-10-08T06:46:13;5.20;75.80
12125;DHT22;6126;57.908;16.490;2023-10-08T06:48:40;5.30;75.90
12125;DHT22;6126;57.908;16.490;2023-10-08T06:51:12;5.20;75.70
12125;DHT22;6126;57.908;16.490;2023-10-08T06:53:42;5.10;75.60
12125;DHT22;6126;57.908;16.490;2023-10-08T06:56:11;5.30;75.70
12125;DHT22;6126;57.908;16.490;2023-10-08T06:58:38;5.40;75.80
12125;DHT22;6126;57.908;16.490;2023-10-08T07:01:05;5.10;75.40
12125;DHT22;6126;57.908;16.490;2023-10-08T07:03:34;5.30;75.50
12125;DHT22;6126;57.908;16.490;2023-10-08T07:06:03;5.50;75.70
12125;DHT22;6126;57.908;16.490;2023-10-08T07:08:43;5.40;75.60
12125;DHT22;6126;57.908;16.490;2023-10-08T07:11:13;5.40;75.50
12125;DHT22;6126;57.908;16.490;2023-10-08T07:13:40;5.50;75.50
12125;DHT22;6126;57.908;16.490;2023-10-08T07:16:08;5.70;75.60
12125;DHT22;6126;57.908;16.490;2023-10-08T07:18:38;5.50;75.30
12125;DHT22;6126;57.908;16.490;2023-10-08T07:21:04;5.60;75.40
12125;DHT22;6126;57.908;16.490;2023-10-08T07:23:38;5.60;75.30
12125;DHT22;6126;57.908;16.490;2023-10-08T07:26:40;5.90;75.60
12125;DHT22;6126;57.908;16.490;2023-10-08T07:29:15;5.70;75.30
12125;DHT22;6126;57.908;16.490;2023-10-08T07:31:46;5.60;75.20
12125;DHT22;6126;57.908;16.490;2023-10-08T07:34:18;5.70;74.70
12125;DHT22;6126;57.908;16.490;2023-10-08T07:36:51;5.80;75.20
12125;DHT22;6126;57.908;16.490;2023-10-08T07:39:21;5.90;75.20
12125;DHT22;6126;57.908;16.490;2023-10-08T07:41:50;5.90;75.20
12125;DHT22;6126;57.908;16.490;2023-10-08T07:44:21;6.10;75.30
12125;DHT22;6126;57.908;16.490;2023-10-08T07:46:49;6.00;75.10
12125;DHT22;6126;57.908;16.490;2023-10-08T07:49:16;5.90;74.40
12125;DHT22;6126;57.908;16.490;2023-10-08T07:51:43;6.20;75.10
12125;DHT22;6126;57.908;16.490;2023-10-08T07:54:29;6.30;75.10
12125;DHT22;6126;57.908;16.490;2023-10-08T07:57:00;6.00;74.80
12125;DHT22;6126;57.908;16.490;2023-10-08T07:59:46;6.40;74.50
12125;DHT22;6126;57.908;16.490;2023-10-08T08:02:15;6.40;75.00
12125;DHT22;6126;57.908;16.490;2023-10-08T08:04:43;6.30;74.70
12125;DHT22;6126;57.908;16.490;2023-10-08T08:07:11;6.30;74.70
12125;DHT22;6126;57.908;16.490;2023-10-08T08:09:42;6.50;74.90
12125;DHT22;6126;57.908;16.490;2023-10-08T08:12:22;6.50;74.70
12125;DHT22;6126;57.908;16.490;2023-10-08T08:14:48;6.50;74.60
12125;DHT22;6126;57.908;16.490;2023-10-08T08:17:14;6.70;74.70
12125;DHT22;6126;57.908;16.490;2023-10-08T08:19:42;6.60;74.60
12125;DHT22;6126;57.908;16.490;2023-10-08T08:22:21;6.70;74.50
12125;DHT22;6126;57.908;16.490;2023-10-08T08:24:51;6.80;74.50
12125;DHT22;6126;57.908;16.490;2023-10-08T08:27:28;6.70;74.30
12125;DHT22;6126;57.908;16.490;2023-10-08T08:29:57;6.90;74.40
12125;DHT22;6126;57.908;16.490;2023-10-08T08:32:38;6.90;74.30
12125;DHT22;6126;57.908;16.490;2023-10-08T08:35:09;6.90;74.30
12125;DHT22;6126;57.908;16.490;2023-10-08T08:37:36;7.10;74.30
12125;DHT22;6126;57.908;16.490;2023-10-08T08:40:10;7.00;74.20
12125;DHT22;6126;57.908;16.490;2023-10-08T08:42:47;7.10;74.10
12125;DHT22;6126;57.908;16.490;2023-10-08T08:45:22;7.20;74.10
12125;DHT22;6126;57.908;16.490;2023-10-08T08:47:52;7.10;73.90
12125;DHT22;6126;57.908;16.490;2023-10-08T08:50:19;7.50;74.30
12125;DHT22;6126;57.908;16.490;2023-10-08T08:52:46;7.20;73.80
12125;DHT22;6126;57.908;16.490;2023-10-08T08:55:12;7.30;73.90
12125;DHT22;6126;57.908;16.490;2023-10-08T08:57:42;7.40;73.80
12125;DHT22;6126;57.908;16.490;2023-10-08T09:00:11;7.70;74.00
12125;DHT22;6126;57.908;16.490;2023-10-08T09:02:39;7.40;73.70
12125;DHT22;6126;57.908;16.490;2023-10-08T09:05:06;7.70;73.90
12125;DHT22;6126;57.908;16.490;2023-10-08T09:10:29;7.60;73.50
12125;DHT22;6126;57.908;16.490;2023-10-08T09:13:05;7.80;73.70
12125;DHT22;6126;57.908;16.490;2023-10-08T09:15:33;7.70;73.00
12125;DHT22;6126;57.908;16.490;2023-10-08T09:18:00;7.90;73.10
12125;DHT22;6126;57.908;16.490;2023-10-08T09:20:27;7.80;73.20
12125;DHT22;6126;57.908;16.490;2023-10-08T09:23:14;8.00;72.90
12125;DHT22;6126;57.908;16.490;2023-10-08T09:25:44;7.90;72.90
12125;DHT22;6126;57.908;16.490;2023-10-08T09:28:11;7.90;72.60
12125;DHT22;6126;57.908;16.490;2023-10-08T09:30:41;8.20;73.00
12125;DHT22;6126;57.908;16.490;2023-10-08T09:33:11;8.10;72.70
12125;DHT22;6126;57.908;16.490;2023-10-08T09:35:38;8.10;72.60
12125;DHT22;6126;57.908;16.490;2023-10-08T09:38:07;8.40;72.80
12125;DHT22;6126;57.908;16.490;2023-10-08T09:40:38;8.30;72.60
12125;DHT22;6126;57.908;16.490;2023-10-08T09:43:06;8.20;72.40
12125;DHT22;6126;57.908;16.490;2023-10-08T09:45:34;8.30;72.40
12125;DHT22;6126;57.908;16.490;2023-10-08T09:48:01;8.20;72.20
12125;DHT22;6126;57.908;16.490;2023-10-08T09:50:40;8.30;72.10
12125;DHT22;6126;57.908;16.490;2023-10-08T09:53:14;8.40;72.30
12125;DHT22;6126;57.908;16.490;2023-10-08T09:56:14;8.30;71.90
12125;DHT22;6126;57.908;16.490;2023-10-08T09:58:44;8.30;71.90
12125;DHT22;6126;57.908;16.490;2023-10-08T10:01:14;8.30;71.70
12125;DHT22;6126;57.908;16.490;2023-10-08T10:03:44;8.60;72.00
12125;DHT22;6126;57.908;16.490;2023-10-08T10:06:15;8.60;71.90
12125;DHT22;6126;57.908;16.490;2023-10-08T10:08:44;8.40;71.50
12125;DHT22;6126;57.908;16.490;2023-10-08T10:11:11;8.70;71.80
12125;DHT22;6126;57.908;16.490;2023-10-08T10:13:45;8.50;71.50
12125;DHT22;6126;57.908;16.490;2023-10-08T10:16:21;8.60;71.50
12125;DHT22;6126;57.908;16.490;2023-10-08T10:18:50;8.60;71.30
12125;DHT22;6126;57.908;16.490;2023-10-08T10:23:43;8.70;71.20
12125;DHT22;6126;57.908;16.490;2023-10-08T10:31:44;8.90;71.10
12125;DHT22;6126;57.908;16.490;2023-10-08T10:34:18;9.20;71.20
12125;DHT22;6126;57.908;16.490;2023-10-08T10:36:47;8.80;70.70
12125;DHT22;6126;57.908;16.490;2023-10-08T10:39:18;9.20;71.00
12125;DHT22;6126;57.908;16.490;2023-10-08T10:42:00;9.10;70.70
12125;DHT22;6126;57.908;16.490;2023-10-08T10:44:30;9.40;70.90
12125;DHT22;6126;57.908;16.490;2023-10-08T10:46:58;9.40;70.80
12125;DHT22;6126;57.908;16.490;2023-10-08T10:49:44;9.20;70.40
12125;DHT22;6126;57.908;16.490;2023-10-08T10:52:24;9.50;70.60
12125;DHT22;6126;57.908;16.490;2023-10-08T10:55:10;9.60;70.60
12125;DHT22;6126;57.908;16.490;2023-10-08T10:57:41;9.60;70.20
12125;DHT22;6126;57.908;16.490;2023-10-08T11:00:09;9.70;70.20
12125;DHT22;6126;57.908;16.490;2023-10-08T11:02:56;9.40;69.70
12125;DHT22;6126;57.908;16.490;2023-10-08T11:05:34;9.70;69.80
12125;DHT22;6126;57.908;16.490;2023-10-08T11:08:04;9.70;69.80
12125;DHT22;6126;57.908;16.490;2023-10-08T11:10:42;9.90;69.70
12125;DHT22;6126;57.908;16.490;2023-10-08T11:13:17;9.80;70.30
12125;DHT22;6126;57.908;16.490;2023-10-08T11:15:46;9.90;69.30
12125;DHT22;6126;57.908;16.490;2023-10-08T11:18:17;10.20;68.40
12125;DHT22;6126;57.908;16.490;2023-10-08T11:20:46;10.10;68.10
12125;DHT22;6126;57.908;16.490;2023-10-08T11:23:33;10.10;68.20
12125;DHT22;6126;57.908;16.490;2023-10-08T11:26:03;10.10;68.00
12125;DHT22;6126;57.908;16.490;2023-10-08T11:28:40;10.00;67.80
12125;DHT22;6126;57.908;16.490;2023-10-08T11:31:14;10.30;68.10
12125;DHT22;6126;57.908;16.490;2023-10-08T11:33:45;10.30;67.90
12125;DHT22;6126;57.908;16.490;2023-10-08T11:36:22;10.40;67.80
12125;DHT22;6126;57.908;16.490;2023-10-08T11:38:55;10.50;67.70
12125;DHT22;6126;57.908;16.490;2023-10-08T11:41:28;10.20;67.40
12125;DHT22;6126;57.908;16.490;2023-10-08T11:44:00;10.40;67.60
12125;DHT22;6126;57.908;16.490;2023-10-08T11:46:30;10.70;67.80
12125;DHT22;6126;57.908;16.490;2023-10-08T11:49:05;10.30;67.30
12125;DHT22;6126;57.908;16.490;2023-10-08T11:51:35;10.40;67.30
12125;DHT22;6126;57.908;16.490;2023-10-08T11:54:03;10.80;67.60
12125;DHT22;6126;57.908;16.490;2023-10-08T11:56:37;10.90;67.50
12125;DHT22;6126;57.908;16.490;2023-10-08T11:59:05;10.80;67.40
12125;DHT22;6126;57.908;16.490;2023-10-08T12:01:38;10.60;67.00
12125;DHT22;6126;57.908;16.490;2023-10-08T12:04:09;10.70;67.10
12125;DHT22;6126;57.908;16.490;2023-10-08T12:06:41;10.90;67.20
12125;DHT22;6126;57.908;16.490;2023-10-08T12:09:13;11.00;67.20
12125;DHT22;6126;57.908;16.490;2023-10-08T12:11:40;10.80;66.90
12125;DHT22;6126;57.908;16.490;2023-10-08T12:14:06;10.90;66.80
12125;DHT22;6126;57.908;16.490;2023-10-08T12:16:32;11.10;67.10
12125;DHT22;6126;57.908;16.490;2023-10-08T12:19:02;11.10;67.10
12125;DHT22;6126;57.908;16.490;2023-10-08T12:21:31;10.80;66.60
12125;DHT22;6126;57.908;16.490;2023-10-08T12:23:58;10.80;66.50
12125;DHT22;6126;57.908;16.490;2023-10-08T12:26:24;10.80;66.50
12125;DHT22;6126;57.908;16.490;2023-10-08T12:28:51;11.10;66.80
12125;DHT22;6126;57.908;16.490;2023-10-08T12:31:20;11.00;66.60
12125;DHT22;6126;57.908;16.490;2023-10-08T12:33:52;11.20;66.80
12125;DHT22;6126;57.908;16.490;2023-10-08T12:36:26;11.10;66.60
12125;DHT22;6126;57.908;16.490;2023-10-08T12:38:58;10.80;66.20
12125;DHT22;6126;57.908;16.490;2023-10-08T12:41:25;11.10;66.40
12125;DHT22;6126;57.908;16.490;2023-10-08T12:43:54;11.00;66.20
12125;DHT22;6126;57.908;16.490;2023-10-08T12:46:21;11.20;66.30
12125;DHT22;6126;57.908;16.490;2023-10-08T12:48:51;11.10;66.00
12125;DHT22;6126;57.908;16.490;2023-10-08T12:51:23;10.90;65.90
12125;DHT22;6126;57.908;16.490;2023-10-08T12:53:51;11.20;66.30
12125;DHT22;6126;57.908;16.490;2023-10-08T12:56:25;11.20;66.20
12125;DHT22;6126;57.908;16.490;2023-10-08T12:58:58;11.20;66.10
12125;DHT22;6126;57.908;16.490;2023-10-08T13:01:24;11.10;65.80
12125;DHT22;6126;57.908;16.490;2023-10-08T13:03:55;11.30;65.90
12125;DHT22;6126;57.908;16.490;2023-10-08T13:06:27;11.50;66.00
12125;DHT22;6126;57.908;16.490;2023-10-08T13:08:57;11.50;65.80
12125;DHT22;6126;57.908;16.490;2023-10-08T13:11:26;11.30;65.60
12125;DHT22;6126;57.908;16.490;2023-10-08T13:13:56;11.40;65.80
12125;DHT22;6126;57.908;16.490;2023-10-08T13:16:24;11.50;65.70
12125;DHT22;6126;57.908;16.490;2023-10-08T13:18:52;11.40;65.50
12125;DHT22;6126;57.908;16.490;2023-10-08T13:21:22;11.50;65.50
12125;DHT22;6126;57.908;16.490;2023-10-08T13:23:51;11.30;65.30
12125;DHT22;6126;57.908;16.490;2023-10-08T13:26:17;11.40;65.20
12125;DHT22;6126;57.908;16.490;2023-10-08T13:28:44;11.70;65.50
12125;DHT22;6126;57.908;16.490;2023-10-08T13:31:12;11.80;65.30
12125;DHT22;6126;57.908;16.490;2023-10-08T13:33:40;11.50;64.90
12125;DHT22;6126;57.908;16.490;2023-10-08T13:36:15;11.50;65.20
12125;DHT22;6126;57.908;16.490;2023-10-08T13:38:42;11.40;65.20
12125;DHT22;6126;57.908;16.490;2023-10-08T13:41:09;11.60;65.30
12125;DHT22;6126;57.908;16.490;2023-10-08T13:43:42;11.70;65.40
12125;DHT22;6126;57.908;16.490;2023-10-08T13:46:16;11.70;65.10
12125;DHT22;6126;57.908;16.490;2023-10-08T13:48:44;11.70;65.20
12125;DHT22;6126;57.908;16.490;2023-10-08T13:51:14;11.60;65.20
12125;DHT22;6126;57.908;16.490;2023-10-08T13:53:48;11.60;65.20
12125;DHT22;6126;57.908;16.490;2023-10-08T13:56:19;11.70;65.40
12125;DHT22;6126;57.908;16.490;2023-10-08T13:58:50;11.60;66.00
12125;DHT22;6126;57.908;16.490;2023-10-08T14:01:21;11.40;65.00
12125;DHT22;6126;57.908;16.490;2023-10-08T14:03:47;11.40;65.30
12125;DHT22;6126;57.908;16.490;2023-10-08T14:06:15;11.80;65.60
12125;DHT22;6126;57.908;16.490;2023-10-08T14:08:45;11.60;65.30
12125;DHT22;6126;57.908;16.490;2023-10-08T14:11:18;11.80;65.60
12125;DHT22;6126;57.908;16.490;2023-10-08T14:13:44;11.50;65.40
12125;DHT22;6126;57.908;16.490;2023-10-08T14:16:12;11.40;65.30
12125;DHT22;6126;57.908;16.490;2023-10-08T14:18:40;11.40;65.40
12125;DHT22;6126;57.908;16.490;2023-10-08T14:21:10;11.40;65.50
12125;DHT22;6126;57.908;16.490;2023-10-08T14:23:39;11.50;65.70
12125;DHT22;6126;57.908;16.490;2023-10-08T14:26:08;11.20;65.40
12125;DHT22;6126;57.908;16.490;2023-10-08T14:28:35;11.40;65.80
12125;DHT22;6126;57.908;16.490;2023-10-08T14:31:19;10.90;65.50
12125;DHT22;6126;57.908;16.490;2023-10-08T14:33:50;11.20;65.90
12125;DHT22;6126;57.908;16.490;2023-10-08T14:36:33;11.20;65.90
12125;DHT22;6126;57.908;16.490;2023-10-08T14:39:18;10.90;65.60
12125;DHT22;6126;57.908;16.490;2023-10-08T14:42:03;10.90;65.60
12125;DHT22;6126;57.908;16.490;2023-10-08T14:44:48;11.20;65.90
12125;DHT22;6126;57.908;16.490;2023-10-08T14:47:16;11.10;65.90
12125;DHT22;6126;57.908;16.490;2023-10-08T14:49:42;11.00;65.80
12125;DHT22;6126;57.908;16.490;2023-10-08T14:52:09;10.90;65.80
12125;DHT22;6126;57.908;16.490;2023-10-08T14:54:35;10.70;65.50
12125;DHT22;6126;57.908;16.490;2023-10-08T14:57:03;10.70;65.60
12125;DHT22;6126;57.908;16.490;2023-10-08T14:59:32;10.80;65.90
12125;DHT22;6126;57.908;16.490;2023-10-08T15:01:58;10.70;65.80
12125;DHT22;6126;57.908;16.490;2023-10-08T15:04:25;10.80;66.00
12125;DHT22;6126;57.908;16.490;2023-10-08T15:06:56;10.70;66.00
12125;DHT22;6126;57.908;16.490;2023-10-08T15:09:23;10.50;65.90
12125;DHT22;6126;57.908;16.490;2023-10-08T15:11:53;10.70;66.20
12125;DHT22;6126;57.908;16.490;2023-10-08T15:14:19;10.60;66.20
12125;DHT22;6126;57.908;16.490;2023-10-08T15:16:48;10.80;66.40
12125;DHT22;6126;57.908;16.490;2023-10-08T15:19:23;10.20;65.80
12125;DHT22;6126;57.908;16.490;2023-10-08T15:21:50;10.50;66.20
12125;DHT22;6126;57.908;16.490;2023-10-08T15:24:20;10.20;66.10
12125;DHT22;6126;57.908;16.490;2023-10-08T15:26:51;10.40;66.40
12125;DHT22;6126;57.908;16.490;2023-10-08T15:29:22;10.30;66.50
12125;DHT22;6126;57.908;16.490;2023-10-08T15:31:54;9.90;67.60
12125;DHT22;6126;57.908;16.490;2023-10-08T15:34:22;9.90;67.60
12125;DHT22;6126;57.908;16.490;2023-10-08T15:36:52;9.90;67.60
12125;DHT22;6126;57.908;16.490;2023-10-08T15:39:18;9.90;67.80
12125;DHT22;6126;57.908;16.490;2023-10-08T15:41:50;9.80;67.80
12125;DHT22;6126;57.908;16.490;2023-10-08T15:44:17;9.90;68.00
12125;DHT22;6126;57.908;16.490;2023-10-08T15:46:46;10.00;67.00
12125;DHT22;6126;57.908;16.490;2023-10-08T15:49:12;9.90;68.40
12125;DHT22;6126;57.908;16.490;2023-10-08T15:51:39;9.80;68.40
12125;DHT22;6126;57.908;16.490;2023-10-08T15:54:05;9.60;68.40
12125;DHT22;6126;57.908;16.490;2023-10-08T15:56:32;9.30;68.30
12125;DHT22;6126;57.908;16.490;2023-10-08T15:58:58;9.40;68.70
12125;DHT22;6126;57.908;16.490;2023-10-08T16:01:24;9.00;68.50
12125;DHT22;6126;57.908;16.490;2023-10-08T16:03:53;9.10;68.90
12125;DHT22;6126;57.908;16.490;2023-10-08T16:06:19;9.00;69.10
12125;DHT22;6126;57.908;16.490;2023-10-08T16:08:46;9.20;69.60
12125;DHT22;6126;57.908;16.490;2023-10-08T16:11:13;9.00;69.60
12125;DHT22;6126;57.908;16.490;2023-10-08T16:13:39;8.90;69.60
12125;DHT22;6126;57.908;16.490;2023-10-08T16:16:11;9.10;69.90
12125;DHT22;6126;57.908;16.490;2023-10-08T16:18:37;9.00;69.90
12125;DHT22;6126;57.908;16.490;2023-10-08T16:21:04;9.00;70.00
12125;DHT22;6126;57.908;16.490;2023-10-08T16:23:35;8.80;70.00
12125;DHT22;6126;57.908;16.490;2023-10-08T16:26:03;8.90;70.20
12125;DHT22;6126;57.908;16.490;2023-10-08T16:28:31;8.60;70.00
12125;DHT22;6126;57.908;16.490;2023-10-08T16:30:58;8.80;70.30
12125;DHT22;6126;57.908;16.490;2023-10-08T16:33:24;8.70;70.30